Time;durP1;ratioP1;P1;durP2;ratioP2;P2;SDS_P1;SDS_P2;PMS_P1;PMS_P2;Temp;Humidity;BMP_temperature;BMP_pressure;BME280_temperature;BME280_humidity;BME280_pressure;Samples;Min_cycle;Max_cycle;Signal;HPM_P1;HPM_P2
2022/11/01 00:02:15;;;;;;;;;;;;;;;-144.99;100.00;52419.56;5072143;28;19947;-74
2022/11/01 00:04:42;;;;;;;;;;;;;;;-144.99;100.00;52450.13;5080120;28;20000;-74
2022/11/01 00:07:08;;;;;;;;;;;;;;;-144.99;100.00;52407.31;5073043;28;19950;-74
2022/11/01 00:09:35;;;;;;;;;;;;;;;-144.99;100.00;52395.09;5066947;28;19940;-74
2022/11/01 00:12:01;;;;;;;;;;;;;;;-144.99;100.00;52427.72;5061996;28;19994;-73
2022/11/01 00:14:28;;;;;;;;;;;;;;;-144.99;100.00;52452.16;5060300;28;20461;-74
2022/11/01 00:16:54;;;;;;;;;;;;;;;-144.99;100.00;52431.78;5064596;28;20371;-75
2022/11/01 00:19:22;;;;;;;;;;;;;;;-144.99;100.00;52388.97;5060379;28;20020;-74
2022/11/01 00:21:49;;;;;;;;;;;;;;;-144.99;100.00;52391.03;5054937;28;20524;-74
2022/11/01 00:24:15;;;;;;;;;;;;;;;-144.99;100.00;52439.94;5058070;28;20001;-74
2022/11/01 00:26:42;;;;;;;;;;;;;;;-144.99;100.00;52439.94;5054314;28;19994;-74
2022/11/01 00:29:08;;;;;;;;;;;;;;;-144.99;100.00;52395.09;5061939;28;20083;-64
2022/11/01 00:31:35;;;;;;;;;;;;;;;-144.99;100.00;52382.88;5061335;28;19960;-64
2022/11/01 00:34:04;;;;;;;;;;;;;;;-144.99;100.00;52425.66;5059936;28;20002;-64
2022/11/01 00:36:32;;;;;;;;;;;;;;;-144.99;100.00;52415.47;4707121;28;10000056;-73
2022/11/01 00:38:58;;;;;;;;;;;;;;;-144.99;100.00;52395.09;5057445;28;19946;-68
2022/11/01 00:41:25;;;;;;;;;;;;;;;-144.99;100.00;52391.03;5054315;28;19961;-68
2022/11/01 00:43:51;;;;;;;;;;;;;;;-144.99;100.00;52427.72;5061785;28;19941;-68
2022/11/01 00:46:18;;;;;;;;;;;;;;;-144.99;100.00;52399.19;5065110;28;19962;-68
2022/11/01 00:48:45;;;;;;;;;;;;;;;-144.99;100.00;52415.47;5059736;28;19942;-70
2022/11/01 00:51:11;;;;;;;;;;;;;;;-144.99;100.00;52425.66;5059722;28;19965;-70
2022/11/01 00:53:39;;;;;;;;;;;;;;;-144.99;100.00;52399.19;5056211;28;20499;-69
2022/11/01 00:56:06;;;;;;;;;;;;;;;-144.99;100.00;52435.88;5069143;28;19982;-69
2022/11/01 00:58:34;;;;;;;;;;;;;;;-144.99;100.00;52386.94;5070896;28;19960;-69
2022/11/01 01:01:01;;;;;;;;;;;;;;;-144.99;100.00;52393.06;5076164;28;19962;-69
2022/11/01 01:03:27;;;;;;;;;;;;;;;-144.99;100.00;52419.56;5071730;28;19943;-69
2022/11/01 01:05:54;;;;;;;;;;;;;;;-144.99;100.00;52439.94;5086343;28;19952;-67
2022/11/01 01:08:21;;;;;;;;;;;;;;;-144.99;100.00;52419.56;5076224;28;20146;-67
2022/11/01 01:10:49;;;;;;;;;;;;;;;-144.99;100.00;52403.25;5064512;28;20052;-66
2022/11/01 01:13:15;;;;;;;;;;;;;;;-144.99;100.00;52423.63;5058353;28;19960;-67
2022/11/01 01:15:42;;;;;;;;;;;;;;;-144.99;100.00;52411.41;5067338;28;19936;-64
2022/11/01 01:18:08;;;;;;;;;;;;;;;-144.99;100.00;52391.03;5058214;28;20065;-63
2022/11/01 01:20:35;;;;;;;;;;;;;;;-144.99;100.00;52407.31;5067085;28;19952;-63
2022/11/01 01:23:02;;;;;;;;;;;;;;;-144.99;100.00;52399.19;5062909;28;19945;-60
2022/11/01 01:25:28;;;;;;;;;;;;;;;-144.99;100.00;52437.91;5051187;28;20315;-60
2022/11/01 01:27:56;;;;;;;;;;;;;;;-144.99;100.00;52393.06;5064109;28;19958;-60
2022/11/01 01:30:23;;;;;;;;;;;;;;;-144.99;100.00;52427.72;5060177;28;20661;-61
2022/11/01 01:32:50;;;;;;;;;;;;;;;-144.99;100.00;52382.88;5064672;28;19974;-60
2022/11/01 01:35:16;;;;;;;;;;;;;;;-144.99;100.00;52452.16;5067186;28;19965;-59
2022/11/01 01:37:43;;;;;;;;;;;;;;;-144.99;100.00;52419.56;5061333;28;19932;-60
2022/11/01 01:40:09;;;;;;;;;;;;;;;-144.99;100.00;52403.25;5064083;28;20399;-59
2022/11/01 01:42:37;;;;;;;;;;;;;;;-144.99;100.00;52386.94;5071039;28;20396;-65
2022/11/01 01:45:16;;;;;;;;;;;;;;;-144.99;100.00;52435.88;5069551;28;19946;-65
2022/11/01 01:47:44;;;;;;;;;;;;;;;-144.99;100.00;52378.78;5071713;28;20159;-67
2022/11/01 01:50:12;;;;;;;;;;;;;;;-144.99;100.00;52427.72;5057498;28;19971;-68
2022/11/01 01:52:42;;;;;;;;;;;;;;;-144.99;100.00;52399.19;5061557;28;19942;-66
2022/11/01 01:55:10;;;;;;;;;;;;;;;-144.99;100.00;52376.75;5061237;28;19974;-69
2022/11/01 01:57:37;;;;;;;;;;;;;;;-144.99;100.00;52423.63;5063330;28;20022;-70
2022/11/01 02:00:04;;;;;;;;;;;;;;;-144.99;100.00;52450.13;5065442;28;19956;-70
2022/11/01 02:02:32;;;;;;;;;;;;;;;-144.99;100.00;52419.56;5061815;28;20042;-69
2022/11/01 02:05:02;;;;;;;;;;;;;;;-144.99;100.00;52407.31;5074517;28;19952;-70
2022/11/01 02:07:28;;;;;;;;;;;;;;;-144.99;100.00;52433.81;5079000;28;19963;-70
2022/11/01 02:09:56;;;;;;;;;;;;;;;-144.99;100.00;52423.63;5068345;28;19943;-71
2022/11/01 02:12:23;;;;;;;;;;;;;;;-144.99;100.00;52391.03;5061499;28;19966;-70
2022/11/01 02:14:49;;;;;;;;;;;;;;;-144.99;100.00;52433.81;5061231;28;20318;-68
2022/11/01 02:17:22;;;;;;;;;;;;;;;-144.99;100.00;52413.44;5066591;28;20013;-69
2022/11/01 02:20:07;;;;;;;;;;;;;;;-144.99;100.00;52395.09;5059511;28;19937;-68
2022/11/01 02:22:42;;;;;;;;;;;;;;;-144.99;100.00;52411.41;5055249;28;19934;-68
2022/11/01 02:25:26;;;;;;;;;;;;;;;-144.99;100.00;52415.47;5054656;28;20376;-68
2022/11/01 02:28:00;;;;;;;;;;;;;;;-144.99;100.00;52403.25;5060860;28;19938;-68
2022/11/01 02:30:30;;;;;;;;;;;;;;;-144.99;100.00;52427.72;5064350;28;19995;-68
2022/11/01 02:33:04;;;;;;;;;;;;;;;-144.99;100.00;52423.63;5063993;28;20479;-68
2022/11/01 02:35:39;;;;;;;;;;;;;;;-144.99;100.00;52421.59;5056869;28;19940;-68
2022/11/01 02:38:07;;;;;;;;;;;;;;;-144.99;100.00;52435.88;5068527;28;20466;-68
2022/11/01 02:40:36;;;;;;;;;;;;;;;-144.99;100.00;52386.94;5059095;28;20045;-68
2022/11/01 02:43:03;;;;;;;;;;;;;;;-144.99;100.00;52427.72;5056891;28;19944;-70
2022/11/01 02:45:33;;;;;;;;;;;;;;;-144.99;100.00;52401.22;5065866;28;20451;-68
2022/11/01 02:48:00;;;;;;;;;;;;;;;-144.99;100.00;52407.31;5057893;28;19946;-68
2022/11/01 02:50:30;;;;;;;;;;;;;;;-144.99;100.00;52374.72;5057250;28;19957;-67
2022/11/01 02:52:57;;;;;;;;;;;;;;;-144.99;100.00;52419.56;5065498;28;19942;-66
2022/11/01 02:55:29;;;;;;;;;;;;;;;-144.99;100.00;52403.25;5066282;28;20677;-67
2022/11/01 02:57:58;;;;;;;;;;;;;;;-144.99;100.00;52370.63;5058361;28;20037;-67
2022/11/01 03:00:26;;;;;;;;;;;;;;;-144.99;100.00;52397.13;5064768;28;19962;-67
2022/11/01 03:02:56;;;;;;;;;;;;;;;-144.99;100.00;52378.78;5064444;28;19967;-66
2022/11/01 03:05:27;;;;;;;;;;;;;;;-144.99;100.00;52395.09;5081310;28;19946;-68
2022/11/01 03:07:58;;;;;;;;;;;;;;;-144.99;100.00;52435.88;5086449;28;20026;-66
2022/11/01 03:10:30;;;;;;;;;;;;;;;-144.99;100.00;52403.25;5075967;28;19972;-66
2022/11/01 03:13:02;;;;;;;;;;;;;;;-144.99;100.00;52386.94;5064469;28;20030;-69
2022/11/01 03:15:32;;;;;;;;;;;;;;;-144.99;100.00;52407.31;5068019;28;19972;-69
2022/11/01 03:18:01;;;;;;;;;;;;;;;-144.99;100.00;52368.59;5063793;28;19967;-69
2022/11/01 03:20:46;;;;;;;;;;;;;;;-144.99;100.00;52397.13;5067093;28;20467;-66
2022/11/01 03:23:15;;;;;;;;;;;;;;;-144.99;100.00;52423.63;5068537;28;19950;-66
2022/11/01 03:25:43;;;;;;;;;;;;;;;-144.99;100.00;52395.09;5057797;28;19985;-63
2022/11/01 03:28:14;;;;;;;;;;;;;;;-144.99;100.00;52413.44;5064755;28;19939;-63
2022/11/01 03:30:43;;;;;;;;;;;;;;;-144.99;100.00;52427.72;5062299;28;20001;-64
2022/11/01 03:33:11;;;;;;;;;;;;;;;-144.99;100.00;52407.31;5061688;28;20310;-65
2022/11/01 03:35:39;;;;;;;;;;;;;;;-144.99;100.00;52386.94;5069731;28;19953;-62
2022/11/01 03:38:06;;;;;;;;;;;;;;;-144.99;100.00;52431.78;5065157;28;21204;-68
2022/11/01 03:40:36;;;;;;;;;;;;;;;-144.99;100.00;52391.03;5062040;28;20408;-63
2022/11/01 03:43:04;;;;;;;;;;;;;;;-144.99;100.00;52382.88;5058147;28;20383;-65
2022/11/01 03:45:33;;;;;;;;;;;;;;;-144.99;100.00;52401.22;5064656;28;19941;-65
2022/11/01 03:48:01;;;;;;;;;;;;;;;-144.99;100.00;52433.81;5061269;28;19937;-65
2022/11/01 03:50:28;;;;;;;;;;;;;;;-144.99;100.00;52427.72;5061352;28;19966;-69
2022/11/01 03:52:55;;;;;;;;;;;;;;;-144.99;100.00;52401.22;5060718;28;19943;-68
2022/11/01 03:55:21;;;;;;;;;;;;;;;-144.99;100.00;52413.44;5064508;28;20051;-68
2022/11/01 03:57:50;;;;;;;;;;;;;;;-144.99;100.00;52386.94;5061985;28;20036;-67
2022/11/01 04:00:17;;;;;;;;;;;;;;;-144.99;100.00;52391.03;5068136;28;19947;-70
2022/11/01 04:02:44;;;;;;;;;;;;;;;-144.99;100.00;52429.75;5070539;28;19956;-68
2022/11/01 04:05:10;;;;;;;;;;;;;;;-144.99;100.00;52397.13;5068850;28;19939;-69
2022/11/01 04:07:37;;;;;;;;;;;;;;;-144.99;100.00;52399.19;5085053;28;19981;-70
2022/11/01 04:10:03;;;;;;;;;;;;;;;-144.99;100.00;52366.56;5064273;22;19970;-76
2022/11/01 04:12:30;;;;;;;;;;;;;;;-144.99;100.00;52407.31;5025381;28;19941;-77
2022/11/01 04:20:35;;;;;;;;;;;;;;;-144.99;100.00;52391.03;5007139;28;20088;-76
2022/11/01 04:23:02;;;;;;;;;;;;;;;-144.99;100.00;52382.88;5000099;28;20111;-74
2022/11/01 04:25:28;;;;;;;;;;;;;;;-144.99;100.00;52419.56;5006964;28;19956;-75
2022/11/01 04:27:55;;;;;;;;;;;;;;;-144.99;100.00;52415.47;5006313;28;20340;-75
2022/11/01 04:30:23;;;;;;;;;;;;;;;-144.99;100.00;52378.78;5008164;28;19959;-76
2022/11/01 04:32:49;;;;;;;;;;;;;;;-144.99;100.00;52423.63;4999311;28;19939;-79
2022/11/01 04:35:16;;;;;;;;;;;;;;;-144.99;100.00;52382.88;5017579;28;19932;-79
2022/11/01 04:37:43;;;;;;;;;;;;;;;-144.99;100.00;52395.09;5000066;28;19969;-77
2022/11/01 04:40:09;;;;;;;;;;;;;;;-144.99;100.00;52415.47;5006472;28;19963;-75
2022/11/01 04:42:36;;;;;;;;;;;;;;;-144.99;100.00;52362.50;5004499;28;19948;-76
2022/11/01 04:45:03;;;;;;;;;;;;;;;-144.99;100.00;52391.03;5005025;28;20016;-73
2022/11/01 04:47:31;;;;;;;;;;;;;;;-144.99;100.00;52386.94;5011082;28;19936;-76
2022/11/01 04:49:57;;;;;;;;;;;;;;;-144.99;100.00;52382.88;5005001;28;19937;-77
2022/11/01 04:52:23;;;;;;;;;;;;;;;-144.99;100.00;52384.91;5004011;28;19953;-78
2022/11/01 04:54:50;;;;;;;;;;;;;;;-144.99;100.00;52378.78;4999977;28;19959;-78
2022/11/01 04:57:23;;;;;;;;;;;;;;;-144.99;100.00;52403.25;5006270;28;20426;-77
2022/11/01 04:59:49;;;;;;;;;;;;;;;-144.99;100.00;52397.13;5006082;28;19959;-76
2022/11/01 05:02:16;;;;;;;;;;;;;;;-144.99;100.00;52399.19;5004174;28;19969;-78
2022/11/01 05:04:43;;;;;;;;;;;;;;;-144.99;100.00;52444.03;5011810;28;19940;-77
2022/11/01 05:07:10;;;;;;;;;;;;;;;-144.99;100.00;52368.59;4999818;28;19958;-75
2022/11/01 05:09:36;;;;;;;;;;;;;;;-144.99;100.00;52395.09;5011661;28;19961;-76
2022/11/01 05:12:02;;;;;;;;;;;;;;;-144.99;100.00;52399.19;5026900;28;19963;-73
2022/11/01 05:14:29;;;;;;;;;;;;;;;-144.99;100.00;52411.41;5029517;28;19954;-75
2022/11/01 05:16:55;;;;;;;;;;;;;;;-144.99;100.00;52403.25;5035090;28;19939;-80
2022/11/01 05:19:22;;;;;;;;;;;;;;;-144.99;100.00;52403.25;5025478;28;19977;-78
2022/11/01 05:21:50;;;;;;;;;;;;;;;-144.99;100.00;52403.25;5026699;28;20038;-80
2022/11/01 05:24:16;;;;;;;;;;;;;;;-144.99;100.00;52393.06;5017924;28;20371;-78
2022/11/01 05:26:43;;;;;;;;;;;;;;;-144.99;100.00;52366.56;5021868;28;20019;-81
2022/11/01 05:29:10;;;;;;;;;;;;;;;-144.99;100.00;52431.78;5024036;28;19955;-79
2022/11/01 05:31:36;;;;;;;;;;;;;;;-144.99;100.00;52382.88;5029981;28;19956;-81
2022/11/01 05:34:03;;;;;;;;;;;;;;;-144.99;100.00;52397.13;5025703;28;20053;-79
2022/11/01 05:36:30;;;;;;;;;;;;;;;-144.99;100.00;52386.94;5027892;28;19936;-79
2022/11/01 05:38:58;;;;;;;;;;;;;;;-144.99;100.00;52407.31;5033594;28;19939;-80
2022/11/01 05:41:24;;;;;;;;;;;;;;;-144.99;100.00;52435.88;5036015;28;20405;-79
2022/11/01 05:43:50;;;;;;;;;;;;;;;-144.99;100.00;52370.63;5035200;28;19943;-79
2022/11/01 05:46:17;;;;;;;;;;;;;;;-144.99;100.00;52425.66;5029840;28;19939;-77
2022/11/01 05:48:43;;;;;;;;;;;;;;;-144.99;100.00;52384.91;5028205;28;19937;-80
2022/11/01 05:51:10;;;;;;;;;;;;;;;-144.99;100.00;52439.94;5018744;28;20895;-80
2022/11/01 05:53:37;;;;;;;;;;;;;;;-144.99;100.00;52431.78;5033193;28;20019;-83
2022/11/01 05:56:05;;;;;;;;;;;;;;;-144.99;100.00;52395.09;5032556;28;19957;-81
2022/11/01 05:58:31;;;;;;;;;;;;;;;-144.99;100.00;52399.19;5023182;28;19968;-76
2022/11/01 06:00:58;;;;;;;;;;;;;;;-144.99;100.00;52419.56;5022749;28;19986;-79
2022/11/01 06:03:24;;;;;;;;;;;;;;;-144.99;100.00;52388.97;5027654;28;19937;-77
2022/11/01 06:05:50;;;;;;;;;;;;;;;-144.99;100.00;52399.19;5020889;28;19941;-77
2022/11/01 06:08:17;;;;;;;;;;;;;;;-144.99;100.00;52407.31;5016046;28;19939;-78
2022/11/01 06:10:46;;;;;;;;;;;;;;;-144.99;100.00;52388.97;5020134;28;19933;-76
2022/11/01 06:13:14;;;;;;;;;;;;;;;-144.99;100.00;52378.78;5022229;28;20411;-80
2022/11/01 06:15:40;;;;;;;;;;;;;;;-144.99;100.00;52415.47;4332177;28;10000892;-83
2022/11/01 06:18:07;;;;;;;;;;;;;;;-144.99;100.00;52423.63;5029518;28;19952;-85
2022/11/01 06:20:35;;;;;;;;;;;;;;;-144.99;100.00;52403.25;5023155;28;19958;-83
2022/11/01 06:23:07;;;;;;;;;;;;;;;-144.99;100.00;52415.47;5028398;28;19943;-84
2022/11/01 06:25:34;;;;;;;;;;;;;;;-144.99;100.00;52346.19;5034099;28;19944;-85
2022/11/01 06:28:00;;;;;;;;;;;;;;;-144.99;100.00;52382.88;5031614;28;20054;-83
2022/11/01 06:30:28;;;;;;;;;;;;;;;-144.99;100.00;52419.56;5023968;28;20087;-79
2022/11/01 06:32:58;;;;;;;;;;;;;;;-144.99;100.00;52374.72;5021991;28;20354;-78
2022/11/01 06:35:26;;;;;;;;;;;;;;;-144.99;100.00;52368.59;5027266;28;19959;-81
2022/11/01 06:37:53;;;;;;;;;;;;;;;-144.99;100.00;52423.63;5029690;28;19975;-79
2022/11/01 06:40:19;;;;;;;;;;;;;;;-144.99;100.00;52417.53;5039205;28;20476;-81
2022/11/01 06:42:45;;;;;;;;;;;;;;;-144.99;100.00;52372.69;5029890;28;20372;-80
2022/11/01 06:45:12;;;;;;;;;;;;;;;-144.99;100.00;52376.75;5030308;28;19952;-82
2022/11/01 06:47:39;;;;;;;;;;;;;;;-144.99;100.00;52374.72;5046099;28;20119;-84
2022/11/01 06:50:06;;;;;;;;;;;;;;;-144.99;100.00;52382.88;5049856;28;19994;-81
2022/11/01 06:52:33;;;;;;;;;;;;;;;-144.99;100.00;52391.03;5027783;28;20459;-82
2022/11/01 06:54:59;;;;;;;;;;;;;;;-144.99;100.00;52368.59;5027624;28;19977;-81
2022/11/01 06:57:25;;;;;;;;;;;;;;;-144.99;100.00;52399.19;5021112;28;19950;-80
2022/11/01 06:59:52;;;;;;;;;;;;;;;-144.99;100.00;52386.94;5023191;28;20392;-81
2022/11/01 07:02:18;;;;;;;;;;;;;;;-144.99;100.00;52415.47;5027408;28;19949;-80
2022/11/01 07:04:46;;;;;;;;;;;;;;;-144.99;100.00;52399.19;5029817;28;20317;-82
2022/11/01 07:07:13;;;;;;;;;;;;;;;-144.99;100.00;52399.19;5030280;28;19941;-82
2022/11/01 07:09:39;;;;;;;;;;;;;;;-144.99;100.00;52399.19;5029345;28;20177;-81
2022/11/01 07:12:06;;;;;;;;;;;;;;;-144.99;100.00;52391.03;5029932;28;20076;-78
2022/11/01 07:14:32;;;;;;;;;;;;;;;-144.99;100.00;52382.88;5032134;28;20425;-82
2022/11/01 07:16:59;;;;;;;;;;;;;;;-144.99;100.00;52419.56;5031204;28;19957;-78
2022/11/01 07:19:25;;;;;;;;;;;;;;;-144.99;100.00;52421.59;5025693;28;20120;-78
2022/11/01 07:21:53;;;;;;;;;;;;;;;-144.99;100.00;52395.09;5027230;28;19947;-79
2022/11/01 07:24:19;;;;;;;;;;;;;;;-144.99;100.00;52425.66;5021331;28;20527;-81
2022/11/01 07:26:46;;;;;;;;;;;;;;;-144.99;100.00;52427.72;5025448;28;20003;-79
2022/11/01 07:29:12;;;;;;;;;;;;;;;-144.99;100.00;52458.28;5026501;28;20286;-78
2022/11/01 07:31:39;;;;;;;;;;;;;;;-144.99;100.00;52446.06;5027542;28;19990;-80
2022/11/01 07:34:06;;;;;;;;;;;;;;;-144.99;100.00;52391.03;5026601;28;19968;-78
2022/11/01 07:36:32;;;;;;;;;;;;;;;-144.99;100.00;52419.56;5030847;28;19955;-82
2022/11/01 07:39:00;;;;;;;;;;;;;;;-144.99;100.00;52378.78;5026969;28;19947;-81
2022/11/01 07:41:27;;;;;;;;;;;;;;;-144.99;100.00;52378.78;5030906;28;19939;-78
2022/11/01 07:43:53;;;;;;;;;;;;;;;-144.99;100.00;52433.81;5017887;28;19941;-82
2022/11/01 07:46:19;;;;;;;;;;;;;;;-144.99;100.00;52366.56;5011224;28;20058;-80
2022/11/01 07:48:46;;;;;;;;;;;;;;;-144.99;100.00;52382.88;5034542;28;19929;-81
2022/11/01 07:51:14;;;;;;;;;;;;;;;-144.99;100.00;52407.31;5025464;28;20531;-81
2022/11/01 07:53:40;;;;;;;;;;;;;;;-144.99;100.00;52399.19;5023589;28;19957;-81
2022/11/01 07:56:08;;;;;;;;;;;;;;;-144.99;100.00;52403.25;5020585;28;19929;-81
2022/11/01 07:58:35;;;;;;;;;;;;;;;-144.99;100.00;52378.78;5015892;28;19950;-81
2022/11/01 08:01:01;;;;;;;;;;;;;;;-144.99;100.00;52407.31;5027679;28;19925;-82
2022/11/01 08:03:27;;;;;;;;;;;;;;;-144.99;100.00;52391.03;5026911;28;19959;-81
2022/11/01 08:05:55;;;;;;;;;;;;;;;-144.99;100.00;52391.03;5030186;28;19964;-81
2022/11/01 08:08:22;;;;;;;;;;;;;;;-144.99;100.00;52372.69;5027392;28;20288;-82
2022/11/01 08:10:48;;;;;;;;;;;;;;;-144.99;100.00;52366.56;5027797;28;20068;-81
2022/11/01 08:13:17;;;;;;;;;;;;;;;-144.99;99.17;52354.34;5027283;28;19956;-81
2022/11/01 08:15:44;;;;;;;;;;;;;;;-144.99;97.98;52333.94;5027214;28;20359;-80
2022/11/01 08:18:11;;;;;;;;;;;;;;;-144.99;96.59;52329.88;5034155;28;19952;-81
2022/11/01 08:20:37;;;;;;;;;;;;;;;-144.99;95.30;52358.41;5027539;28;19971;-81
2022/11/01 08:23:04;;;;;;;;;;;;;;;-144.99;94.82;52386.94;5026176;28;19952;-78
2022/11/01 08:25:30;;;;;;;;;;;;;;;-144.99;92.57;52382.88;5019831;28;19942;-81
2022/11/01 08:28:00;;;;;;;;;;;;;;;-144.99;91.67;52354.34;5030409;28;19975;-83
2022/11/01 08:30:28;;;;;;;;;;;;;;;-144.99;91.64;52403.25;5028540;28;19959;-82
2022/11/01 08:32:57;;;;;;;;;;;;;;;-144.99;92.10;52338.03;5014657;28;20330;-78
2022/11/01 08:35:23;;;;;;;;;;;;;;;-144.99;93.20;52350.25;5026935;28;20123;-79
2022/11/01 08:37:50;;;;;;;;;;;;;;;-144.99;93.50;52350.25;5024160;28;20047;-77
2022/11/01 08:40:17;;;;;;;;;;;;;;;-144.99;93.15;52374.72;5025046;28;19963;-82
2022/11/01 08:42:43;;;;;;;;;;;;;;;-144.99;92.82;52362.50;5026422;28;20392;-82
2022/11/01 08:45:10;;;;;;;;;;;;;;;-144.99;93.25;52378.78;5014330;28;19949;-81
2022/11/01 08:47:38;;;;;;;;;;;;;;;-144.99;93.36;52329.88;5029889;28;20265;-83
2022/11/01 08:50:05;;;;;;;;;;;;;;;-144.99;92.70;52372.69;5032179;28;20054;-79
2022/11/01 08:52:31;;;;;;;;;;;;;;;-144.99;92.49;52366.56;5018507;28;19977;-83
2022/11/01 08:54:58;;;;;;;;;;;;;;;-144.99;91.33;52360.44;5015362;28;19951;-84
2022/11/01 08:57:24;;;;;;;;;;;;;;;-144.99;90.85;52346.19;5012205;28;20624;-84
2022/11/01 08:59:51;;;;;;;;;;;;;;;-144.99;89.73;52333.94;5029338;28;20062;-82
2022/11/01 09:02:17;;;;;;;;;;;;;;;-144.99;89.14;52325.81;5026354;28;20288;-80
2022/11/01 09:04:45;;;;;;;;;;;;;;;-144.99;87.92;52350.25;5027917;28;19943;-82
2022/11/01 09:07:11;;;;;;;;;;;;;;;-144.99;86.51;52356.38;5024424;28;19946;-78
2022/11/01 09:09:38;;;;;;;;;;;;;;;-144.99;86.25;52333.94;5019546;28;20060;-81
2022/11/01 09:12:06;;;;;;;;;;;;;;;-144.99;85.71;52356.38;5024223;28;20051;-84
2022/11/01 09:14:32;;;;;;;;;;;;;;;-144.99;85.55;52327.84;5024495;28;20071;-83
2022/11/01 09:16:59;;;;;;;;;;;;;;;-144.99;83.79;52342.09;5023829;28;19978;-82
2022/11/01 09:19:25;;;;;;;;;;;;;;;-144.99;83.94;52342.09;5024941;28;20021;-82
2022/11/01 09:21:53;;;;;;;;;;;;;;;-144.99;84.53;52321.72;5022886;28;19954;-82
2022/11/01 09:24:19;;;;;;;;;;;;;;;-144.99;85.65;52354.34;5019019;28;19947;-82
2022/11/01 09:26:46;;;;;;;;;;;;;;;-144.99;86.48;52346.19;5011048;28;19948;-80
2022/11/01 09:29:12;;;;;;;;;;;;;;;-144.99;87.02;52358.41;5023911;28;19976;-82
2022/11/01 09:31:39;;;;;;;;;;;;;;;-144.99;86.67;52362.50;5029325;28;20045;-80
2022/11/01 09:34:05;;;;;;;;;;;;;;;-144.99;87.40;52338.03;5025497;28;19954;-81
2022/11/01 09:36:32;;;;;;;;;;;;;;;-144.99;86.52;52354.34;5045671;28;20016;-86
2022/11/01 09:38:59;;;;;;;;;;;;;;;-144.99;86.62;52354.34;5048747;28;20375;-79
2022/11/01 09:41:30;;;;;;;;;;;;;;;-144.99;85.03;52382.88;5033500;28;20029;-80
2022/11/01 09:43:57;;;;;;;;;;;;;;;-144.99;84.01;52362.50;5021015;28;19933;-81
2022/11/01 09:46:26;;;;;;;;;;;;;;;-144.99;82.99;52346.19;5025790;28;20023;-80
2022/11/01 09:48:54;;;;;;;;;;;;;;;-144.99;81.88;52358.41;5026367;28;20325;-77
2022/11/01 09:51:21;;;;;;;;;;;;;;;-144.99;81.42;52342.09;5019111;28;20342;-80
2022/11/01 09:53:48;;;;;;;;;;;;;;;-144.99;79.67;52378.78;5020696;28;19991;-81
2022/11/01 09:56:21;;;;;;;;;;;;;;;-144.99;78.88;52380.84;5008232;28;19967;-80
2022/11/01 09:58:53;;;;;;;;;;;;;;;-144.99;78.13;52391.03;5028871;28;20223;-80
2022/11/01 10:01:27;;;;;;;;;;;;;;;-144.99;76.15;52358.41;5027974;28;20003;-81
2022/11/01 10:04:10;;;;;;;;;;;;;;;-144.99;76.32;52372.69;5015141;28;19961;-82
2022/11/01 10:06:39;;;;;;;;;;;;;;;-144.99;73.82;52384.91;5025947;28;19946;-79
2022/11/01 10:09:11;;;;;;;;;;;;;;;-144.99;73.47;52391.03;5025622;28;19968;-81
2022/11/01 10:12:03;;;;;;;;;;;;;;;-144.99;72.19;52342.09;5082807;22;19958;-77
2022/11/01 10:14:36;;;;;;;;;;;;;;;-144.99;68.72;52333.94;5072727;28;20435;-78
2022/11/01 10:17:10;;;;;;;;;;;;;;;-144.99;66.30;52244.28;5082245;28;19964;-76
2022/11/01 10:19:37;;;;;;;;;;;;;;;-144.99;59.89;52195.34;5074674;28;19951;-74
2022/11/01 10:22:06;;;;;;;;;;;;;;;-144.99;54.05;52162.75;5066267;28;19960;-76
2022/11/01 10:24:35;;;;;;;;;;;;;;;-144.99;50.53;52152.56;5066626;28;19996;-77
2022/11/01 10:27:07;;;;;;;;;;;;;;;-144.99;48.76;52109.75;5069215;28;19949;-78
2022/11/01 10:29:38;;;;;;;;;;;;;;;-144.99;46.67;52146.44;5071998;28;20249;-76
2022/11/01 10:32:09;;;;;;;;;;;;;;;-144.99;45.50;52121.97;5070714;28;19959;-77
2022/11/01 10:34:38;;;;;;;;;;;;;;;-144.99;45.26;52113.84;5058411;28;20033;-78
2022/11/01 10:37:12;;;;;;;;;;;;;;;-144.99;43.99;52134.22;5070375;28;20510;-76
2022/11/01 10:39:41;;;;;;;;;;;;;;;-144.99;43.53;52126.06;5095891;28;19939;-78
2022/11/01 10:42:12;;;;;;;;;;;;;;;-144.99;42.40;52109.75;5074739;28;19993;-77
2022/11/01 10:44:41;;;;;;;;;;;;;;;-144.99;41.06;52079.19;5077768;28;20467;-79
2022/11/01 10:47:12;;;;;;;;;;;;;;;-144.99;40.83;52097.53;5086086;28;19943;-76
2022/11/01 10:49:44;;;;;;;;;;;;;;;-144.99;40.36;52097.53;5091188;28;19952;-77
2022/11/01 10:52:11;;;;;;;;;;;;;;;-144.99;40.02;52124.03;5074063;28;20379;-77
2022/11/01 10:54:40;;;;;;;;;;;;;;;-144.99;39.80;52146.44;5069764;28;20025;-76
2022/11/01 10:57:11;;;;;;;;;;;;;;;-144.99;40.02;52126.06;5070608;28;20291;-78
2022/11/01 10:59:40;;;;;;;;;;;;;;;-144.99;39.19;52085.31;5071737;28;19928;-78
2022/11/01 11:02:15;;;;;;;;;;;;;;;-144.99;38.24;52060.84;5071521;28;19972;-77
2022/11/01 11:04:42;;;;;;;;;;;;;;;-144.99;37.19;52103.66;5072237;28;20000;-79
2022/11/01 11:07:12;;;;;;;;;;;;;;;-144.99;37.76;52117.91;5071226;28;19943;-79
2022/11/01 11:09:38;;;;;;;;;;;;;;;-144.99;38.11;52113.84;5073104;28;19948;-78
2022/11/01 11:12:07;;;;;;;;;;;;;;;-144.99;38.13;52154.59;5073971;28;20456;-82
2022/11/01 11:14:35;;;;;;;;;;;;;;;-144.99;38.75;52174.97;5075918;28;19980;-77
2022/11/01 11:17:02;;;;;;;;;;;;;;;-144.99;39.23;52179.06;5076121;28;19963;-79
2022/11/01 11:19:32;;;;;;;;;;;;;;;-144.99;38.81;52166.81;5078032;28;19949;-77
2022/11/01 11:21:59;;;;;;;;;;;;;;;-144.99;40.17;52205.53;5077149;28;19964;-78
2022/11/01 11:24:31;;;;;;;;;;;;;;;-144.99;39.74;52168.84;5073035;28;19944;-78
2022/11/01 11:26:58;;;;;;;;;;;;;;;-144.99;38.46;52136.25;5078665;28;19998;-76
2022/11/01 11:29:34;;;;;;;;;;;;;;;-144.99;38.54;52162.75;5080151;28;19952;-77
2022/11/01 11:32:02;;;;;;;;;;;;;;;-144.99;39.39;52154.59;5078371;28;19975;-77
2022/11/01 11:34:30;;;;;;;;;;;;;;;-144.99;39.48;52207.59;5077639;28;19966;-77
2022/11/01 11:36:57;;;;;;;;;;;;;;;-144.99;39.87;52179.06;5078416;28;20297;-75
2022/11/01 11:39:25;;;;;;;;;;;;;;;-144.99;38.60;52124.03;5081391;28;19947;-79
2022/11/01 11:41:51;;;;;;;;;;;;;;;-144.99;38.93;52191.28;5084222;28;19959;-77
2022/11/01 11:44:40;;;;;;;;;;;;;;;-144.99;38.81;52146.44;5092751;27;19924;-77
2022/11/01 11:47:17;;;;;;;;;;;;;;;-144.99;39.12;52142.38;5084752;28;20028;-78
2022/11/01 11:49:44;;;;;;;;;;;;;;;-144.99;38.33;52203.50;5075940;28;19946;-78
2022/11/01 11:52:14;;;;;;;;;;;;;;;-144.99;38.89;52240.19;5070936;28;19992;-78
2022/11/01 11:54:42;;;;;;;;;;;;;;;-144.99;40.41;52276.88;5069185;28;19969;-77
2022/11/01 11:57:11;;;;;;;;;;;;;;;-144.99;41.11;52211.66;5068912;28;19960;-78
2022/11/01 11:59:37;;;;;;;;;;;;;;;-144.99;40.57;52187.19;5070931;28;20419;-76
2022/11/01 12:02:05;;;;;;;;;;;;;;;-144.99;40.66;52203.50;5067500;28;20059;-76
2022/11/01 12:04:37;;;;;;;;;;;;;;;-144.99;39.88;52166.81;5067627;28;20050;-77
2022/11/01 12:07:06;;;;;;;;;;;;;;;-144.99;39.23;52170.91;5068078;28;19946;-76
2022/11/01 12:09:34;;;;;;;;;;;;;;;-144.99;39.25;52160.72;5070363;28;20001;-77
2022/11/01 12:12:06;;;;;;;;;;;;;;;-144.99;38.72;52138.28;5069450;28;20081;-78
2022/11/01 12:14:34;;;;;;;;;;;;;;;-144.99;38.38;52223.88;5070965;28;20093;-77
2022/11/01 12:17:00;;;;;;;;;;;;;;;-144.99;38.55;52201.47;5068770;28;20043;-74
2022/11/01 12:19:28;;;;;;;;;;;;;;;-144.99;38.98;52207.59;5066593;28;20031;-76
2022/11/01 12:21:57;;;;;;;;;;;;;;;-144.99;38.90;52191.28;5075187;28;20254;-77
2022/11/01 12:24:25;;;;;;;;;;;;;;;-144.99;38.02;52124.03;5065293;28;19959;-78
2022/11/01 12:26:54;;;;;;;;;;;;;;;-144.99;37.64;52183.13;5068512;28;19946;-76
2022/11/01 12:29:27;;;;;;;;;;;;;;;-144.99;38.14;52162.75;5070094;28;20012;-74
2022/11/01 12:31:55;;;;;;;;;;;;;;;-144.99;38.37;52203.50;5068509;28;20378;-74